Time;durP1;ratioP1;P1;durP2;ratioP2;P2;SDS_P1;SDS_P2;PMS_P1;PMS_P2;Temp;Humidity;BMP_temperature;BMP_pressure;BME280_temperature;BME280_humidity;BME280_pressure;Samples;Min_cycle;Max_cycle;Signal;HPM_P1;HPM_P2
2022/09/01 00:01:19;;;;;;;0.68;0.50;;;24.50;63.60;;;;;;4999613;28;20060;-14
2022/09/01 00:03:47;;;;;;;0.47;0.47;;;24.50;63.60;;;;;;5001867;28;20034;-14
2022/09/01 00:06:15;;;;;;;0.70;0.50;;;24.50;63.60;;;;;;5003481;28;20121;-15
2022/09/01 00:08:40;;;;;;;0.52;0.52;;;24.50;63.70;;;;;;5000733;28;20065;-14
2022/09/01 00:11:06;;;;;;;0.40;0.40;;;24.50;63.60;;;;;;5002806;28;20080;-15
2022/09/01 00:13:32;;;;;;;0.63;0.60;;;24.50;63.60;;;;;;5004708;28;20045;-14
2022/09/01 00:15:59;;;;;;;0.40;0.40;;;24.50;63.60;;;;;;5002865;28;20046;-14
2022/09/01 00:18:25;;;;;;;0.45;0.45;;;24.50;63.60;;;;;;4999429;28;20042;-16
2022/09/01 00:20:51;;;;;;;0.40;0.40;;;24.50;63.60;;;;;;4998720;28;20061;-15
2022/09/01 00:23:16;;;;;;;0.50;0.50;;;24.50;63.60;;;;;;5000724;28;20508;-15
2022/09/01 00:25:42;;;;;;;0.40;0.40;;;24.50;63.60;;;;;;5000595;28;20049;-14
2022/09/01 00:28:07;;;;;;;0.50;0.50;;;24.50;63.60;;;;;;4998305;28;20381;-15
2022/09/01 00:30:33;;;;;;;0.60;0.55;;;24.50;63.60;;;;;;5000008;28;20042;-14
2022/09/01 00:32:58;;;;;;;0.65;0.50;;;24.50;63.70;;;;;;5002564;28;20060;-15
2022/09/01 00:35:24;;;;;;;0.40;0.40;;;24.50;63.60;;;;;;5002302;28;20034;-25
2022/09/01 00:37:50;;;;;;;0.75;0.75;;;24.50;63.60;;;;;;5008288;28;20574;-15
2022/09/01 00:40:15;;;;;;;0.40;0.40;;;24.50;63.60;;;;;;5000352;28;20535;-16
2022/09/01 00:42:42;;;;;;;0.60;0.60;;;24.40;63.50;;;;;;5002250;28;20069;-15
2022/09/01 00:45:09;;;;;;;0.50;0.50;;;24.50;63.60;;;;;;5003662;28;20079;-15
2022/09/01 00:47:35;;;;;;;0.70;0.70;;;24.50;63.60;;;;;;5003356;28;20030;-15
2022/09/01 00:50:01;;;;;;;0.50;0.50;;;24.40;63.50;;;;;;5004533;28;20068;-13
2022/09/01 00:52:36;;;;;;;0.45;0.45;;;24.50;63.60;;;;;;5004625;28;20046;-14
2022/09/01 00:55:09;;;;;;;0.50;0.50;;;24.50;63.60;;;;;;5010511;28;20183;-14
2022/09/01 00:57:34;;;;;;;0.50;0.50;;;24.40;63.40;;;;;;5002934;28;20404;-14
2022/09/01 01:00:04;;;;;;;0.63;0.50;;;24.40;63.50;;;;;;5001829;28;20041;-15
2022/09/01 01:02:30;;;;;;;0.50;0.50;;;24.40;63.50;;;;;;5005785;28;20072;-14
2022/09/01 01:04:59;;;;;;;0.40;0.40;;;24.40;63.50;;;;;;5008450;28;20493;-14
2022/09/01 01:07:26;;;;;;;0.50;0.50;;;24.40;63.50;;;;;;5014635;28;20153;-14
2022/09/01 01:09:51;;;;;;;0.65;0.65;;;24.40;63.40;;;;;;5001136;28;20050;-14
2022/09/01 01:12:17;;;;;;;0.40;0.40;;;24.40;63.40;;;;;;5001979;28;20052;-16
2022/09/01 01:14:44;;;;;;;0.40;0.40;;;24.40;63.50;;;;;;5001527;28;20467;-14
2022/09/01 01:17:10;;;;;;;0.50;0.50;;;24.40;63.50;;;;;;5009489;28;20234;-14
2022/09/01 01:23:07;;;;;;;0.43;0.43;;;24.40;63.40;;;;;;5009325;28;20163;-14
2022/09/01 01:25:33;;;;;;;0.40;0.40;;;24.40;63.50;;;;;;5008639;28;20122;-14
2022/09/01 01:28:05;;;;;;;0.60;0.60;;;24.40;63.40;;;;;;5004264;28;20038;-14
2022/09/01 01:30:32;;;;;;;0.47;0.47;;;24.40;63.40;;;;;;5004052;28;20046;-21
2022/09/01 01:32:58;;;;;;;0.35;0.35;;;24.40;63.40;;;;;;5002134;28;23194;-15
2022/09/01 01:35:24;;;;;;;0.40;0.40;;;24.40;63.40;;;;;;5003890;28;20050;-15
2022/09/01 01:37:50;;;;;;;0.40;0.40;;;24.40;63.40;;;;;;5012893;28;20050;-14
2022/09/01 01:40:18;;;;;;;0.40;0.40;;;24.40;63.40;;;;;;5004914;28;20466;-15
2022/09/01 01:42:44;;;;;;;0.50;0.50;;;24.40;63.40;;;;;;5003833;28;20037;-14
2022/09/01 01:45:16;;;;;;;0.70;0.70;;;24.40;63.40;;;;;;5003316;28;20030;-14
2022/09/01 01:47:45;;;;;;;0.40;0.40;;;24.40;63.40;;;;;;5000946;28;20034;-15
2022/09/01 01:50:11;;;;;;;0.93;0.60;;;24.40;63.50;;;;;;5008022;28;20225;-14
2022/09/01 01:52:37;;;;;;;0.40;0.40;;;24.40;63.40;;;;;;5007278;28;20516;-14
2022/09/01 01:55:02;;;;;;;0.57;0.57;;;24.40;64.30;;;;;;5011475;28;20056;-14
2022/09/01 01:57:30;;;;;;;0.30;0.30;;;24.40;63.40;;;;;;5001501;28;20045;-14
2022/09/01 01:59:56;;;;;;;0.40;0.40;;;24.40;63.40;;;;;;5003046;28;20054;-14
2022/09/01 02:02:22;;;;;;;0.50;0.50;;;24.40;63.40;;;;;;5004270;28;20057;-22
2022/09/01 02:04:48;;;;;;;0.30;0.30;;;24.40;63.40;;;;;;5003006;28;20054;-14
2022/09/01 02:07:14;;;;;;;0.43;0.43;;;24.40;63.40;;;;;;5014730;28;20391;-14
2022/09/01 02:09:42;;;;;;;0.30;0.30;;;24.40;63.40;;;;;;5002089;28;20088;-14
2022/09/01 02:12:08;;;;;;;0.47;0.47;;;24.40;63.40;;;;;;5001938;28;20129;-14
2022/09/01 02:14:34;;;;;;;0.70;0.45;;;24.30;63.30;;;;;;5000013;28;20128;-15
2022/09/01 02:17:06;;;;;;;0.40;0.40;;;24.30;63.30;;;;;;5003554;28;20183;-14
2022/09/01 02:19:34;;;;;;;0.40;0.40;;;24.30;63.30;;;;;;5004886;28;20133;-14
2022/09/01 02:22:01;;;;;;;0.40;0.40;;;24.30;63.30;;;;;;5003549;28;20075;-14
2022/09/01 02:24:30;;;;;;;0.50;0.50;;;24.30;63.30;;;;;;5003214;28;20537;-15
2022/09/01 02:26:58;;;;;;;0.50;0.50;;;24.30;63.30;;;;;;5003019;28;20070;-20
2022/09/01 02:29:25;;;;;;;0.30;0.30;;;24.30;63.20;;;;;;5001034;28;20527;-14
2022/09/01 02:31:51;;;;;;;0.40;0.40;;;24.30;63.20;;;;;;5000728;28;20030;-14
2022/09/01 02:34:17;;;;;;;0.45;0.45;;;24.30;63.30;;;;;;5001166;28;20049;-15
2022/09/01 02:36:48;;;;;;;0.60;0.60;;;24.30;63.30;;;;;;5003038;28;20053;-15
2022/09/01 02:39:18;;;;;;;0.40;0.40;;;24.30;63.20;;;;;;5002920;28;20042;-14
2022/09/01 02:41:44;;;;;;;0.40;0.40;;;24.30;63.20;;;;;;4994565;28;20050;-14
2022/09/01 02:44:13;;;;;;;0.30;0.30;;;24.30;63.30;;;;;;5001709;28;20072;-14
2022/09/01 02:46:42;;;;;;;0.30;0.30;;;24.30;63.20;;;;;;5001611;28;20050;-14
2022/09/01 02:49:16;;;;;;;0.32;0.32;;;24.30;64.00;;;;;;5002036;28;20386;-14
2022/09/01 02:51:43;;;;;;;0.50;0.50;;;24.40;63.30;;;;;;5001149;28;20057;-14
2022/09/01 02:54:09;;;;;;;0.47;0.47;;;24.30;63.20;;;;;;5000412;28;20564;-14
2022/09/01 02:56:34;;;;;;;0.47;0.47;;;24.30;64.00;;;;;;5002141;28;20061;-16
2022/09/01 02:59:02;;;;;;;0.40;0.32;;;24.30;63.20;;;;;;5001575;28;20564;-15
2022/09/01 03:01:29;;;;;;;0.35;0.35;;;24.30;64.00;;;;;;5000597;28;20110;-17
2022/09/01 03:03:57;;;;;;;0.35;0.35;;;24.30;63.20;;;;;;5001961;28;20130;-14
2022/09/01 03:06:22;;;;;;;0.35;0.35;;;24.30;63.20;;;;;;5001778;28;20053;-14
2022/09/01 03:08:49;;;;;;;0.32;0.32;;;24.30;63.20;;;;;;5001132;28;20046;-15
2022/09/01 03:11:14;;;;;;;0.47;0.47;;;24.30;63.20;;;;;;5004340;28;20095;-14
2022/09/01 03:13:41;;;;;;;0.43;0.43;;;24.30;63.20;;;;;;5001756;28;20045;-18
2022/09/01 03:16:06;;;;;;;0.50;0.50;;;24.30;63.20;;;;;;5002517;28;20038;-15
2022/09/01 03:18:32;;;;;;;0.32;0.32;;;24.30;63.20;;;;;;4998697;28;20051;-15
2022/09/01 03:20:58;;;;;;;0.38;0.38;;;24.30;63.20;;;;;;5000198;28;20665;-15
2022/09/01 03:23:24;;;;;;;0.30;0.30;;;24.30;63.20;;;;;;5006487;28;20063;-19
2022/09/01 03:25:49;;;;;;;0.30;0.30;;;24.30;63.20;;;;;;5001522;28;20050;-15
2022/09/01 03:28:15;;;;;;;0.40;0.40;;;24.30;63.20;;;;;;5003223;28;20416;-16
2022/09/01 03:30:47;;;;;;;0.30;0.30;;;24.30;64.00;;;;;;5005246;28;20095;-16
2022/09/01 03:33:13;;;;;;;0.43;0.32;;;24.20;63.20;;;;;;5002784;28;20041;-15
2022/09/01 03:35:39;;;;;;;0.30;0.30;;;24.30;63.20;;;;;;5001477;28;20079;-16
2022/09/01 03:38:04;;;;;;;0.30;0.30;;;24.20;63.20;;;;;;5004917;28;20107;-14
2022/09/01 03:40:31;;;;;;;0.32;0.32;;;24.20;63.20;;;;;;5005430;28;20053;-15
2022/09/01 03:42:58;;;;;;;0.30;0.30;;;24.20;63.20;;;;;;5002820;28;20045;-18
2022/09/01 03:45:24;;;;;;;0.30;0.30;;;24.20;63.10;;;;;;5001463;28;20038;-14
2022/09/01 03:47:51;;;;;;;0.70;0.70;;;24.30;63.20;;;;;;5001925;28;20049;-16
2022/09/01 03:50:20;;;;;;;0.40;0.40;;;24.20;63.10;;;;;;5010588;28;20047;-25
2022/09/01 03:52:57;;;;;;;0.30;0.30;;;24.30;63.20;;;;;;5003461;28;20085;-15
2022/09/01 03:55:25;;;;;;;0.30;0.30;;;24.20;63.10;;;;;;5003079;28;20034;-14
2022/09/01 03:57:55;;;;;;;0.30;0.30;;;24.20;63.10;;;;;;4994974;28;20616;-21
2022/09/01 04:00:22;;;;;;;0.30;0.30;;;24.20;63.10;;;;;;5001723;28;20077;-15
2022/09/01 04:02:55;;;;;;;0.40;0.40;;;24.20;63.10;;;;;;5001143;28;20046;-15
2022/09/01 04:05:23;;;;;;;0.40;0.40;;;24.20;63.20;;;;;;5003359;28;20049;-15
2022/09/01 04:07:49;;;;;;;0.50;0.50;;;24.20;63.20;;;;;;5003960;28;20057;-14
2022/09/01 04:10:18;;;;;;;0.30;0.30;;;24.20;63.20;;;;;;5010223;28;20053;-16
2022/09/01 04:12:44;;;;;;;0.40;0.40;;;24.20;63.20;;;;;;5000275;28;20124;-21
2022/09/01 04:15:11;;;;;;;0.30;0.30;;;24.20;63.10;;;;;;5000356;28;20457;-14
2022/09/01 04:20:22;;;;;;;0.45;0.45;;;24.20;63.10;;;;;;5005063;28;20519;-14
2022/09/01 04:22:49;;;;;;;0.28;0.28;;;24.20;63.10;;;;;;4998661;28;20118;-15
2022/09/01 04:25:15;;;;;;;0.88;0.40;;;24.20;63.10;;;;;;5009892;28;20097;-14
2022/09/01 04:27:41;;;;;;;0.30;0.20;;;24.20;63.30;;;;;;5000662;28;20042;-14
2022/09/01 04:30:09;;;;;;;0.40;0.40;;;24.20;63.20;;;;;;5000042;28;20423;-15
2022/09/01 04:32:39;;;;;;;0.40;0.25;;;24.20;63.10;;;;;;5001507;28;20121;-15
2022/09/01 04:35:06;;;;;;;0.32;0.32;;;24.20;63.10;;;;;;5011775;28;20083;-15
2022/09/01 04:37:35;;;;;;;0.25;0.25;;;24.20;63.10;;;;;;5005428;28;20571;-14
2022/09/01 04:40:01;;;;;;;0.30;0.30;;;24.20;63.10;;;;;;5006251;28;20050;-14
2022/09/01 04:42:27;;;;;;;0.40;0.30;;;24.10;63.10;;;;;;4999517;28;20030;-14
2022/09/01 04:44:56;;;;;;;0.30;0.30;;;24.20;63.10;;;;;;5000181;28;20042;-13
2022/09/01 04:47:28;;;;;;;0.30;0.30;;;24.20;63.10;;;;;;4997760;28;20523;-14
2022/09/01 04:49:57;;;;;;;0.30;0.30;;;24.20;63.10;;;;;;5009576;28;20042;-14
2022/09/01 04:52:23;;;;;;;0.30;0.30;;;24.20;63.10;;;;;;5000614;28;20050;-14
2022/09/01 04:54:49;;;;;;;0.30;0.30;;;24.10;63.10;;;;;;5003442;28;20059;-14
2022/09/01 04:57:15;;;;;;;0.38;0.38;;;24.20;63.20;;;;;;4998320;28;20056;-14
2022/09/01 04:59:41;;;;;;;0.35;0.35;;;24.20;63.10;;;;;;5000634;28;20137;-16
2022/09/01 05:02:08;;;;;;;0.30;0.30;;;24.10;63.10;;;;;;5001449;28;20058;-14
2022/09/01 05:04:33;;;;;;;0.32;0.32;;;24.20;63.10;;;;;;4997432;28;20496;-14
2022/09/01 05:06:59;;;;;;;0.30;0.30;;;24.20;63.00;;;;;;5005919;28;20061;-14
2022/09/01 05:09:34;;;;;;;0.30;0.30;;;24.10;63.00;;;;;;4999205;28;20052;-14
2022/09/01 05:12:09;;;;;;;0.28;0.28;;;24.10;63.20;;;;;;5000491;28;20450;-14
2022/09/01 05:14:37;;;;;;;0.30;0.30;;;24.10;63.10;;;;;;5001770;28;20128;-14
2022/09/01 05:17:09;;;;;;;0.30;0.30;;;24.10;63.00;;;;;;4998260;28;20061;-14
2022/09/01 05:19:36;;;;;;;0.25;0.25;;;24.20;63.10;;;;;;5002657;28;20049;-14
2022/09/01 05:22:02;;;;;;;0.40;0.40;;;24.10;63.00;;;;;;4998125;28;20049;-15
2022/09/01 05:24:29;;;;;;;0.60;0.40;;;24.10;63.00;;;;;;4998610;28;20049;-15
2022/09/01 05:26:55;;;;;;;0.30;0.30;;;24.10;63.00;;;;;;5005523;28;20057;-16
2022/09/01 05:29:20;;;;;;;0.40;0.40;;;24.20;63.10;;;;;;5001939;28;20517;-14
2022/09/01 05:31:47;;;;;;;0.30;0.30;;;24.10;63.80;;;;;;5003173;28;20048;-14
2022/09/01 05:34:13;;;;;;;0.30;0.30;;;24.10;63.00;;;;;;5009320;28;20045;-15
2022/09/01 05:36:41;;;;;;;0.30;0.30;;;24.10;63.10;;;;;;5000979;28;20049;-14
2022/09/01 05:39:09;;;;;;;0.30;0.22;;;24.10;63.10;;;;;;5003345;28;20139;-14
2022/09/01 05:41:36;;;;;;;0.30;0.30;;;24.10;63.00;;;;;;5001382;28;20086;-15
2022/09/01 05:44:08;;;;;;;0.43;0.30;;;24.10;63.20;;;;;;4876115;28;10000365;-15
2022/09/01 05:46:36;;;;;;;0.43;0.43;;;24.00;63.50;;;;;;4999032;28;20301;-14
2022/09/01 05:49:02;;;;;;;0.30;0.30;;;24.00;63.70;;;;;;4997281;28;20118;-22
2022/09/01 05:51:28;;;;;;;0.20;0.20;;;24.00;63.60;;;;;;4998554;28;20076;-14
2022/09/01 05:53:57;;;;;;;0.30;0.30;;;23.90;63.80;;;;;;4999504;28;20038;-14
2022/09/01 05:56:26;;;;;;;0.30;0.30;;;23.90;63.90;;;;;;4998556;28;20112;-14
2022/09/01 05:58:52;;;;;;;0.43;0.30;;;23.90;63.90;;;;;;4999801;28;20708;-22
2022/09/01 06:01:25;;;;;;;0.30;0.30;;;23.90;64.10;;;;;;4848810;28;10000762;-14
2022/09/01 06:03:55;;;;;;;0.30;0.30;;;23.90;64.90;;;;;;4992274;28;20272;-14
2022/09/01 06:06:27;;;;;;;1.55;0.35;;;23.90;64.10;;;;;;4999863;28;20050;-16
2022/09/01 06:08:57;;;;;;;0.30;0.30;;;23.90;64.10;;;;;;4998929;28;20073;-16
2022/09/01 06:11:25;;;;;;;0.38;0.32;;;23.90;64.20;;;;;;5001013;28;20034;-17
2022/09/01 06:13:51;;;;;;;0.30;0.30;;;23.90;64.30;;;;;;4996123;28;20034;-17
2022/09/01 06:16:18;;;;;;;0.63;0.55;;;23.80;64.40;;;;;;4995056;28;20042;-15
2022/09/01 06:18:44;;;;;;;0.30;0.30;;;23.80;64.50;;;;;;4993856;28;20046;-15
2022/09/01 06:21:13;;;;;;;0.30;0.30;;;23.80;64.60;;;;;;4998637;28;20038;-17
2022/09/01 06:23:42;;;;;;;0.68;0.30;;;23.80;64.80;;;;;;4996803;28;20050;-16
2022/09/01 06:26:18;;;;;;;0.73;0.50;;;23.80;65.00;;;;;;4998714;28;20508;-15
2022/09/01 06:28:44;;;;;;;0.55;0.55;;;23.80;64.80;;;;;;5014749;28;20323;-15
2022/09/01 06:31:11;;;;;;;1.52;0.50;;;23.80;64.90;;;;;;4998601;28;20587;-15
2022/09/01 06:33:37;;;;;;;0.63;0.60;;;23.80;65.10;;;;;;4994126;28;20057;-16
2022/09/01 06:36:04;;;;;;;0.68;0.52;;;23.80;64.90;;;;;;4996490;28;20053;-14
2022/09/01 06:38:29;;;;;;;0.50;0.45;;;23.80;65.10;;;;;;4996039;28;20042;-14
2022/09/01 06:41:03;;;;;;;0.50;0.50;;;23.90;65.00;;;;;;4994339;28;20142;-14
2022/09/01 06:43:29;;;;;;;0.50;0.50;;;23.90;64.40;;;;;;5000696;28;20038;-16
2022/09/01 06:45:55;;;;;;;0.50;0.50;;;23.90;64.80;;;;;;4999286;28;20118;-14
2022/09/01 06:48:22;;;;;;;0.65;0.60;;;23.90;64.60;;;;;;5000952;28;20420;-15
2022/09/01 06:50:48;;;;;;;0.50;0.50;;;23.90;64.90;;;;;;5002244;28;20034;-14
2022/09/01 06:53:17;;;;;;;0.50;0.50;;;23.90;64.90;;;;;;5004246;28;20044;-14
2022/09/01 06:55:45;;;;;;;0.50;0.50;;;23.90;65.00;;;;;;5001451;28;20198;-14
2022/09/01 06:58:12;;;;;;;0.40;0.40;;;23.90;64.60;;;;;;5001794;28;20050;-14
2022/09/01 07:00:40;;;;;;;0.93;0.50;;;23.90;64.50;;;;;;5002613;28;20045;-15
2022/09/01 07:03:10;;;;;;;0.65;0.65;;;23.90;64.40;;;;;;5000055;28;20069;-14
2022/09/01 07:05:39;;;;;;;0.45;0.43;;;24.00;64.40;;;;;;5004900;28;20037;-14
2022/09/01 07:08:08;;;;;;;0.45;0.40;;;23.90;64.20;;;;;;5001774;28;20529;-15
2022/09/01 07:10:43;;;;;;;0.30;0.30;;;24.00;64.30;;;;;;5004070;28;20049;-14
2022/09/01 07:13:21;;;;;;;0.43;0.43;;;24.00;64.20;;;;;;4999885;28;20053;-14
2022/09/01 07:15:48;;;;;;;0.60;0.50;;;24.00;64.20;;;;;;5000733;28;20048;-14
2022/09/01 07:18:16;;;;;;;0.65;0.52;;;24.00;64.10;;;;;;5003309;28;20416;-14
2022/09/01 07:20:42;;;;;;;0.70;0.70;;;24.00;64.00;;;;;;5002159;28;20038;-14
2022/09/01 07:23:07;;;;;;;1.98;0.55;;;24.00;64.00;;;;;;5003613;28;20501;-15
2022/09/01 07:25:37;;;;;;;0.45;0.45;;;24.10;63.80;;;;;;5002062;28;20046;-14
2022/09/01 07:28:04;;;;;;;0.35;0.35;;;24.10;63.60;;;;;;5000702;28;20046;-24
2022/09/01 07:30:30;;;;;;;0.43;0.43;;;24.10;63.60;;;;;;5002874;28;20133;-14
2022/09/01 07:32:56;;;;;;;0.63;0.40;;;24.00;63.60;;;;;;5000149;28;20596;-14
2022/09/01 07:35:22;;;;;;;0.30;0.22;;;24.00;63.60;;;;;;5002398;28;20061;-15
2022/09/01 07:37:49;;;;;;;0.47;0.40;;;24.00;63.70;;;;;;4999332;28;20493;-14
2022/09/01 07:40:17;;;;;;;0.35;0.32;;;24.00;63.60;;;;;;5000039;28;20099;-14
2022/09/01 07:42:46;;;;;;;0.80;0.43;;;24.00;63.70;;;;;;5001622;28;20037;-14
2022/09/01 07:45:13;;;;;;;0.50;0.50;;;24.00;63.70;;;;;;5002036;28;20034;-14
2022/09/01 07:47:38;;;;;;;0.55;0.40;;;24.00;63.70;;;;;;5002358;28;20244;-17
2022/09/01 07:50:06;;;;;;;0.40;0.30;;;24.00;63.70;;;;;;5002491;28;20416;-18
2022/09/01 07:52:41;;;;;;;0.40;0.40;;;24.00;63.70;;;;;;5002776;28;20512;-14
2022/09/01 07:55:11;;;;;;;0.63;0.40;;;24.00;63.80;;;;;;4998517;28;20523;-15
2022/09/01 07:57:37;;;;;;;0.25;0.25;;;24.00;63.80;;;;;;5000723;28;20038;-14
2022/09/01 08:00:04;;;;;;;0.45;0.45;;;24.00;63.70;;;;;;5000457;28;20050;-14
2022/09/01 08:02:31;;;;;;;0.73;0.73;;;24.00;63.70;;;;;;5002164;28;20049;-14
2022/09/01 08:04:57;;;;;;;0.35;0.35;;;24.00;64.50;;;;;;5002558;28;20038;-14
2022/09/01 08:07:23;;;;;;;0.35;0.30;;;24.00;63.70;;;;;;4999098;28;20506;-14
2022/09/01 08:09:49;;;;;;;0.45;0.40;;;24.00;63.70;;;;;;5000768;28;20065;-14
2022/09/01 08:12:14;;;;;;;0.40;0.40;;;24.00;63.70;;;;;;4999582;28;20132;-14
2022/09/01 08:14:40;;;;;;;0.77;0.30;;;24.00;63.70;;;;;;5002164;28;21848;-24
2022/09/01 08:17:06;;;;;;;1.17;0.40;;;24.00;63.70;;;;;;5001356;28;20058;-14
2022/09/01 08:19:31;;;;;;;0.70;0.63;;;24.00;63.70;;;;;;4983119;28;20053;-14
2022/09/01 08:21:57;;;;;;;0.50;0.40;;;24.00;63.70;;;;;;5002003;28;20038;-17
2022/09/01 08:24:22;;;;;;;0.35;0.30;;;24.00;63.70;;;;;;5001840;28;20038;-14
2022/09/01 08:26:48;;;;;;;0.45;0.40;;;24.00;63.60;;;;;;4999340;28;20041;-14
2022/09/01 08:29:14;;;;;;;0.50;0.50;;;24.00;63.60;;;;;;5002202;28;20041;-17
2022/09/01 08:31:40;;;;;;;0.60;0.60;;;24.00;64.50;;;;;;5001412;28;20046;-15
2022/09/01 08:34:05;;;;;;;0.43;0.43;;;24.00;63.60;;;;;;4998435;28;20113;-14
2022/09/01 08:36:31;;;;;;;0.50;0.50;;;24.00;63.80;;;;;;4998596;28;20045;-14
2022/09/01 08:38:56;;;;;;;0.55;0.52;;;24.00;63.70;;;;;;4994210;28;20041;-20
2022/09/01 08:42:17;;;;;;;0.35;0.28;;;24.00;63.60;;;;;;5002786;28;20428;-14
2022/09/01 08:44:52;;;;;;;0.30;0.30;;;24.00;63.60;;;;;;5029990;28;20033;-16
2022/09/01 08:47:17;;;;;;;0.63;0.30;;;24.00;63.70;;;;;;5039459;28;20041;-15
2022/09/01 08:49:45;;;;;;;0.50;0.38;;;24.00;63.60;;;;;;5022644;28;20041;-16
2022/09/01 08:52:24;;;;;;;0.32;0.32;;;24.00;63.60;;;;;;5041033;28;20045;-15
2022/09/01 08:55:16;;;;;;;0.30;0.30;;;24.00;63.60;;;;;;5040173;28;20045;-15
2022/09/01 08:57:44;;;;;;;0.28;0.28;;;24.00;63.70;;;;;;5041495;28;20044;-15
2022/09/01 09:00:12;;;;;;;0.75;0.30;;;24.00;63.70;;;;;;5041905;28;20172;-14
2022/09/01 09:02:50;;;;;;;0.22;0.22;;;24.00;63.70;;;;;;5041053;28;20052;-13
2022/09/01 09:05:42;;;;;;;0.40;0.40;;;23.90;63.60;;;;;;5042190;28;20125;-15
2022/09/01 09:08:14;;;;;;;0.38;0.38;;;23.90;63.70;;;;;;5042055;28;20049;-13
2022/09/01 09:11:17;;;;;;;0.68;0.50;;;24.00;63.70;;;;;;5045999;28;20033;-14
2022/09/01 09:14:14;;;;;;;0.60;0.30;;;24.00;63.80;;;;;;5030328;28;20049;-14
2022/09/01 09:16:47;;;;;;;0.40;0.40;;;23.90;63.70;;;;;;5043916;28;20455;-14
2022/09/01 09:19:28;;;;;;;0.50;0.50;;;23.90;63.70;;;;;;5020228;28;20078;-15
2022/09/01 09:21:55;;;;;;;0.40;0.40;;;23.90;63.70;;;;;;5002328;28;20034;-14
2022/09/01 09:24:46;;;;;;;0.40;0.40;;;23.90;63.70;;;;;;5004299;28;20068;-15
2022/09/01 09:27:15;;;;;;;0.40;0.40;;;23.90;63.80;;;;;;5004704;28;20037;-14
2022/09/01 09:29:41;;;;;;;0.35;0.35;;;23.90;63.80;;;;;;5004592;28;20045;-14
2022/09/01 09:32:08;;;;;;;0.30;0.30;;;23.90;63.70;;;;;;5003645;28;20099;-14
2022/09/01 09:34:36;;;;;;;0.25;0.25;;;23.90;63.70;;;;;;5006536;28;20106;-14
2022/09/01 09:37:19;;;;;;;0.30;0.30;;;23.90;63.60;;;;;;5000186;28;20521;-14
2022/09/01 09:40:00;;;;;;;1.02;0.50;;;23.90;63.70;;;;;;5001226;28;20050;-15
2022/09/01 09:42:26;;;;;;;0.30;0.30;;;23.90;63.80;;;;;;5001614;28;20038;-15
2022/09/01 09:44:54;;;;;;;0.20;0.20;;;23.90;63.80;;;;;;5001276;28;20063;-14
2022/09/01 09:47:33;;;;;;;0.30;0.30;;;23.90;63.80;;;;;;5002241;28;20038;-15
2022/09/01 09:50:18;;;;;;;0.30;0.30;;;23.90;64.60;;;;;;5003430;28;20042;-14
2022/09/01 09:52:45;;;;;;;0.30;0.30;;;23.90;63.90;;;;;;5003058;28;20038;-14
2022/09/01 09:55:29;;;;;;;0.63;0.40;;;23.90;63.70;;;;;;5002736;28;20118;-13
2022/09/01 09:57:59;;;;;;;0.40;0.40;;;23.90;63.80;;;;;;5000521;28;20046;-15
2022/09/01 10:00:32;;;;;;;0.40;0.40;;;23.90;63.80;;;;;;5001876;28;20049;-15
2022/09/01 10:03:03;;;;;;;0.30;0.30;;;23.90;63.70;;;;;;5002951;28;20045;-14
2022/09/01 10:05:43;;;;;;;0.28;0.28;;;23.90;64.50;;;;;;5004944;28;20817;-14
2022/09/01 10:08:11;;;;;;;0.40;0.40;;;23.90;63.70;;;;;;5003562;28;20072;-15
2022/09/01 10:10:47;;;;;;;0.30;0.30;;;23.90;63.80;;;;;;5003547;28;20030;-14
2022/09/01 10:13:18;;;;;;;0.35;0.30;;;23.90;63.80;;;;;;5001388;28;20042;-14
2022/09/01 10:15:47;;;;;;;0.73;0.40;;;23.90;63.80;;;;;;4992508;28;20144;-14
2022/09/01 10:18:18;;;;;;;2.17;0.52;;;23.90;63.80;;;;;;5011664;28;20531;-14
2022/09/01 10:20:54;;;;;;;0.35;0.35;;;24.00;63.60;;;;;;5001459;28;20141;-14
2022/09/01 10:23:19;;;;;;;0.80;0.40;;;24.00;63.50;;;;;;5003771;28;20045;-14
2022/09/01 10:25:45;;;;;;;0.32;0.30;;;24.00;63.40;;;;;;5001082;28;20511;-15
2022/09/01 10:28:14;;;;;;;0.30;0.30;;;24.00;63.40;;;;;;5001574;28;20046;-14
2022/09/01 10:30:41;;;;;;;0.20;0.20;;;24.00;63.20;;;;;;5017820;28;20133;-15
2022/09/01 10:33:07;;;;;;;0.22;0.22;;;24.00;63.30;;;;;;5001189;28;20045;-15
2022/09/01 10:35:38;;;;;;;0.32;0.32;;;24.00;63.30;;;;;;4999488;28;20030;-14
2022/09/01 10:38:07;;;;;;;0.40;0.40;;;24.00;63.30;;;;;;5009058;28;20425;-14
2022/09/01 10:40:32;;;;;;;0.30;0.30;;;24.00;63.30;;;;;;4986245;28;20042;-15
2022/09/01 10:43:17;;;;;;;0.40;0.40;;;24.00;63.30;;;;;;5002152;28;20049;-14
2022/09/01 10:45:43;;;;;;;0.47;0.47;;;24.10;63.30;;;;;;5003641;28;20053;-14
2022/09/01 10:48:24;;;;;;;0.45;0.45;;;24.00;63.30;;;;;;4999270;28;20054;-14
2022/09/01 10:50:52;;;;;;;0.68;0.28;;;24.00;63.20;;;;;;5001940;28;20045;-15
2022/09/01 10:53:33;;;;;;;0.30;0.30;;;24.00;63.10;;;;;;5003166;28;20034;-16
2022/09/01 10:56:06;;;;;;;0.38;0.38;;;24.00;63.20;;;;;;5002493;28;20054;-13
2022/09/01 10:59:05;;;;;;;0.30;0.30;;;24.00;63.20;;;;;;5002468;28;20491;-15
2022/09/01 11:01:40;;;;;;;0.30;0.30;;;24.00;63.30;;;;;;5000386;28;20049;-14
2022/09/01 11:04:06;;;;;;;0.40;0.40;;;24.00;63.30;;;;;;5000417;28;20064;-14
2022/09/01 11:06:32;;;;;;;0.25;0.22;;;24.00;63.40;;;;;;5002462;28;20038;-14
2022/09/01 11:09:02;;;;;;;0.57;0.47;;;24.00;63.20;;;;;;5001267;28;20046;-14
2022/09/01 11:11:39;;;;;;;0.30;0.30;;;24.00;63.20;;;;;;5003677;28;20030;-19
2022/09/01 11:14:10;;;;;;;0.30;0.30;;;24.00;63.20;;;;;;5002751;28;20458;-13
2022/09/01 11:16:37;;;;;;;0.50;0.35;;;24.00;63.20;;;;;;5003518;28;20053;-14
2022/09/01 11:19:27;;;;;;;0.32;0.32;;;24.00;63.30;;;;;;5001990;28;20091;-14
2022/09/01 11:22:12;;;;;;;0.40;0.40;;;24.10;63.20;;;;;;5002477;28;20505;-14
2022/09/01 11:24:37;;;;;;;0.47;0.47;;;24.10;63.20;;;;;;5000953;28;20041;-14
2022/09/01 11:27:10;;;;;;;0.47;0.47;;;24.00;63.90;;;;;;5000242;28;20042;-14
2022/09/01 11:29:55;;;;;;;0.40;0.40;;;24.00;63.20;;;;;;5000890;28;20072;-14
2022/09/01 11:32:23;;;;;;;0.30;0.30;;;24.00;63.30;;;;;;5002377;28;20042;-14
2022/09/01 11:34:49;;;;;;;0.50;0.50;;;24.00;63.30;;;;;;5001471;28;20069;-14
2022/09/01 11:37:15;;;;;;;0.40;0.40;;;24.10;63.50;;;;;;5002950;28;20037;-14
2022/09/01 11:39:45;;;;;;;0.95;0.30;;;24.00;63.60;;;;;;4999846;28;20054;-14
2022/09/01 11:42:19;;;;;;;0.40;0.40;;;24.00;63.60;;;;;;4997500;28;20034;-14
2022/09/01 11:44:53;;;;;;;0.65;0.40;;;24.00;63.50;;;;;;5001126;28;20048;-14
2022/09/01 11:47:28;;;;;;;0.37;0.37;;;24.00;64.00;;;;;;5001903;28;20129;-14
2022/09/01 11:50:08;;;;;;;0.30;0.30;;;24.00;63.80;;;;;;5001269;28;20404;-15
2022/09/01 11:52:35;;;;;;;0.45;0.40;;;24.00;64.60;;;;;;5008943;28;20038;-16
2022/09/01 11:55:02;;;;;;;0.50;0.50;;;23.90;63.90;;;;;;5000801;28;20389;-14
2022/09/01 11:57:32;;;;;;;0.98;0.50;;;23.90;65.10;;;;;;5004987;28;20136;-16
2022/09/01 12:00:00;;;;;;;1.42;0.60;;;23.90;64.40;;;;;;4995772;28;20058;-16
2022/09/01 12:02:28;;;;;;;0.40;0.40;;;23.90;64.20;;;;;;4997059;28;20050;-14
2022/09/01 12:04:55;;;;;;;1.77;0.52;;;24.00;64.40;;;;;;4995978;28;20475;-16
2022/09/01 12:07:30;;;;;;;1.27;0.60;;;24.00;64.10;;;;;;5000976;28;20042;-14
2022/09/01 12:09:56;;;;;;;3.45;0.80;;;24.00;64.60;;;;;;5000228;28;20050;-14
2022/09/01 12:12:32;;;;;;;7.13;1.00;;;24.00;65.00;;;;;;4998708;28;20061;-14
2022/09/01 12:15:02;;;;;;;8.25;0.70;;;24.00;65.40;;;;;;4998272;28;20045;-14
2022/09/01 12:17:28;;;;;;;5.00;0.93;;;24.00;65.60;;;;;;5002497;28;20050;-14
2022/09/01 12:19:54;;;;;;;5.03;0.75;;;24.00;65.50;;;;;;4998541;28;20049;-20
2022/09/01 12:22:21;;;;;;;1.63;0.57;;;24.00;65.50;;;;;;5000361;28;20180;-14
2022/09/01 12:24:49;;;;;;;2.55;0.77;;;24.00;65.20;;;;;;4998175;28;20084;-14
2022/09/01 12:27:15;;;;;;;12.18;1.00;;;24.00;65.10;;;;;;4996136;28;20053;-14
2022/09/01 12:29:40;;;;;;;0.85;0.60;;;24.10;64.80;;;;;;4999653;28;20048;-14
2022/09/01 12:32:06;;;;;;;1.23;0.70;;;24.10;64.90;;;;;;5000999;28;20061;-15
2022/09/01 12:34:32;;;;;;;2.08;0.90;;;24.10;65.10;;;;;;4982231;28;20105;-14
2022/09/01 12:37:15;;;;;;;1.00;0.60;;;24.00;65.10;;;;;;4997808;28;20038;-14
2022/09/01 12:39:45;;;;;;;7.47;0.90;;;24.10;64.80;;;;;;4999386;28;20226;-14
2022/09/01 12:42:22;;;;;;;1.83;0.60;;;24.10;64.90;;;;;;4999059;28;20042;-14
2022/09/01 12:45:06;;;;;;;2.20;0.60;;;24.10;64.50;;;;;;5001279;28;20184;-14
2022/09/01 12:47:39;;;;;;;3.30;0.80;;;24.10;64.40;;;;;;5003290;28;20049;-14
2022/09/01 12:50:04;;;;;;;2.90;0.82;;;24.10;64.60;;;;;;5006207;28;20102;-15
2022/09/01 12:52:34;;;;;;;1.38;0.73;;;24.10;64.40;;;;;;5003094;28;20038;-32
2022/09/01 12:55:03;;;;;;;1.65;0.70;;;24.10;64.30;;;;;;5002860;28;20075;-29
2022/09/01 12:57:30;;;;;;;4.32;0.70;;;24.10;64.30;;;;;;5003343;28;20090;-29
2022/09/01 13:00:14;;;;;;;2.05;0.50;;;24.10;64.10;;;;;;5002568;28;20050;-19
2022/09/01 13:02:50;;;;;;;0.77;0.40;;;24.20;64.40;;;;;;5004171;28;20046;-28